sensor_id;sensor_type;location;lat;lon;timestamp;temperature;humidity
11597;DHT22;5854;48.072;16.286;2024-02-04T00:00:07;9.00;70.40
11597;DHT22;5854;48.072;16.286;2024-02-04T00:02:37;9.10;69.70
11597;DHT22;5854;48.072;16.286;2024-02-04T00:05:05;9.10;69.20
11597;DHT22;5854;48.072;16.286;2024-02-04T00:07:32;9.10;69.00
11597;DHT22;5854;48.072;16.286;2024-02-04T00:10:00;9.10;68.80
11597;DHT22;5854;48.072;16.286;2024-02-04T00:12:27;9.10;69.00
11597;DHT22;5854;48.072;16.286;2024-02-04T00:14:54;9.00;69.30
11597;DHT22;5854;48.072;16.286;2024-02-04T00:17:21;9.00;69.50
11597;DHT22;5854;48.072;16.286;2024-02-04T00:19:50;9.00;69.40
11597;DHT22;5854;48.072;16.286;2024-02-04T00:22:17;9.10;69.30
11597;DHT22;5854;48.072;16.286;2024-02-04T00:24:45;9.10;69.10
11597;DHT22;5854;48.072;16.286;2024-02-04T00:27:13;9.10;69.20
11597;DHT22;5854;48.072;16.286;2024-02-04T00:29:40;9.10;69.10
11597;DHT22;5854;48.072;16.286;2024-02-04T00:32:07;9.00;69.30
11597;DHT22;5854;48.072;16.286;2024-02-04T00:34:34;9.00;69.40
11597;DHT22;5854;48.072;16.286;2024-02-04T00:37:03;8.90;69.80
11597;DHT22;5854;48.072;16.286;2024-02-04T00:39:30;8.90;70.00
11597;DHT22;5854;48.072;16.286;2024-02-04T00:41:58;9.00;70.10
11597;DHT22;5854;48.072;16.286;2024-02-04T00:44:25;9.00;69.80
11597;DHT22;5854;48.072;16.286;2024-02-04T00:46:52;8.90;70.10
11597;DHT22;5854;48.072;16.286;2024-02-04T00:49:20;8.90;70.30
11597;DHT22;5854;48.072;16.286;2024-02-04T00:51:47;8.90;70.50
11597;DHT22;5854;48.072;16.286;2024-02-04T00:54:15;8.90;70.40
11597;DHT22;5854;48.072;16.286;2024-02-04T00:56:43;8.90;70.40
11597;DHT22;5854;48.072;16.286;2024-02-04T00:59:10;8.80;70.90
11597;DHT22;5854;48.072;16.286;2024-02-04T01:01:37;8.80;70.90
11597;DHT22;5854;48.072;16.286;2024-02-04T01:04:05;8.80;71.70
11597;DHT22;5854;48.072;16.286;2024-02-04T01:06:32;8.70;73.10
11597;DHT22;5854;48.072;16.286;2024-02-04T01:08:59;8.80;73.40
11597;DHT22;5854;48.072;16.286;2024-02-04T01:11:28;8.70;72.30
11597;DHT22;5854;48.072;16.286;2024-02-04T01:13:55;8.70;73.10
11597;DHT22;5854;48.072;16.286;2024-02-04T01:16:22;8.70;72.40
11597;DHT22;5854;48.072;16.286;2024-02-04T01:18:49;8.60;72.50
11597;DHT22;5854;48.072;16.286;2024-02-04T01:21:17;8.60;74.10
11597;DHT22;5854;48.072;16.286;2024-02-04T01:23:44;8.60;75.80
11597;DHT22;5854;48.072;16.286;2024-02-04T01:26:11;8.60;75.80
11597;DHT22;5854;48.072;16.286;2024-02-04T01:28:40;8.50;77.50
11597;DHT22;5854;48.072;16.286;2024-02-04T01:31:07;8.50;79.20
11597;DHT22;5854;48.072;16.286;2024-02-04T01:33:34;8.40;78.80
11597;DHT22;5854;48.072;16.286;2024-02-04T01:36:01;8.40;77.90
11597;DHT22;5854;48.072;16.286;2024-02-04T01:38:29;8.40;77.30
11597;DHT22;5854;48.072;16.286;2024-02-04T01:40:56;8.40;77.30
11597;DHT22;5854;48.072;16.286;2024-02-04T01:43:24;8.30;79.40
11597;DHT22;5854;48.072;16.286;2024-02-04T01:45:53;8.30;78.70
11597;DHT22;5854;48.072;16.286;2024-02-04T01:48:20;8.30;77.50
11597;DHT22;5854;48.072;16.286;2024-02-04T01:50:50;8.30;77.90
11597;DHT22;5854;48.072;16.286;2024-02-04T01:53:22;8.20;79.30
11597;DHT22;5854;48.072;16.286;2024-02-04T01:55:49;8.20;82.60
11597;DHT22;5854;48.072;16.286;2024-02-04T01:58:17;8.20;77.80
11597;DHT22;5854;48.072;16.286;2024-02-04T02:00:45;8.20;79.70
11597;DHT22;5854;48.072;16.286;2024-02-04T02:03:15;8.20;82.80
11597;DHT22;5854;48.072;16.286;2024-02-04T02:05:43;8.20;84.10
11597;DHT22;5854;48.072;16.286;2024-02-04T02:08:10;8.20;80.60
11597;DHT22;5854;48.072;16.286;2024-02-04T02:10:37;8.20;80.00
11597;DHT22;5854;48.072;16.286;2024-02-04T02:13:14;8.20;79.70
11597;DHT22;5854;48.072;16.286;2024-02-04T02:15:45;8.20;80.50
11597;DHT22;5854;48.072;16.286;2024-02-04T02:18:21;8.20;81.00
11597;DHT22;5854;48.072;16.286;2024-02-04T02:21:07;8.20;82.80
11597;DHT22;5854;48.072;16.286;2024-02-04T02:23:48;8.20;78.60
11597;DHT22;5854;48.072;16.286;2024-02-04T02:26:22;8.20;84.00
11597;DHT22;5854;48.072;16.286;2024-02-04T02:28:50;8.20;79.00
11597;DHT22;5854;48.072;16.286;2024-02-04T02:31:17;8.20;83.60
11597;DHT22;5854;48.072;16.286;2024-02-04T02:33:44;8.10;78.60
11597;DHT22;5854;48.072;16.286;2024-02-04T02:36:16;8.10;80.40
11597;DHT22;5854;48.072;16.286;2024-02-04T02:38:52;8.10;81.20
11597;DHT22;5854;48.072;16.286;2024-02-04T02:41:26;8.10;82.70
11597;DHT22;5854;48.072;16.286;2024-02-04T02:43:57;8.10;80.40
11597;DHT22;5854;48.072;16.286;2024-02-04T02:46:26;8.10;82.90
11597;DHT22;5854;48.072;16.286;2024-02-04T02:48:54;8.00;84.10
11597;DHT22;5854;48.072;16.286;2024-02-04T02:51:21;8.00;88.40
11597;DHT22;5854;48.072;16.286;2024-02-04T02:53:49;8.00;82.30
11597;DHT22;5854;48.072;16.286;2024-02-04T02:56:16;8.00;83.20
11597;DHT22;5854;48.072;16.286;2024-02-04T02:58:44;8.00;83.80
11597;DHT22;5854;48.072;16.286;2024-02-04T03:01:12;8.00;80.40
11597;DHT22;5854;48.072;16.286;2024-02-04T03:03:39;8.00;85.30
11597;DHT22;5854;48.072;16.286;2024-02-04T03:06:06;8.00;81.70
11597;DHT22;5854;48.072;16.286;2024-02-04T03:08:33;8.10;81.10
11597;DHT22;5854;48.072;16.286;2024-02-04T03:11:01;8.00;80.70
11597;DHT22;5854;48.072;16.286;2024-02-04T03:13:28;8.00;85.00
11597;DHT22;5854;48.072;16.286;2024-02-04T03:15:57;8.00;83.70
11597;DHT22;5854;48.072;16.286;2024-02-04T03:18:25;8.00;78.80
11597;DHT22;5854;48.072;16.286;2024-02-04T03:20:52;8.00;82.80
11597;DHT22;5854;48.072;16.286;2024-02-04T03:23:19;8.00;81.30
11597;DHT22;5854;48.072;16.286;2024-02-04T03:25:47;8.10;83.70
11597;DHT22;5854;48.072;16.286;2024-02-04T03:28:14;8.00;80.60
11597;DHT22;5854;48.072;16.286;2024-02-04T03:30:41;8.00;77.90
11597;DHT22;5854;48.072;16.286;2024-02-04T03:33:10;8.00;81.00
11597;DHT22;5854;48.072;16.286;2024-02-04T03:35:37;8.00;85.40
11597;DHT22;5854;48.072;16.286;2024-02-04T03:38:04;8.00;85.80
11597;DHT22;5854;48.072;16.286;2024-02-04T03:40:31;8.00;83.60
11597;DHT22;5854;48.072;16.286;2024-02-04T03:42:59;8.00;80.30
11597;DHT22;5854;48.072;16.286;2024-02-04T03:45:27;8.00;84.90
11597;DHT22;5854;48.072;16.286;2024-02-04T03:47:54;8.00;81.20
11597;DHT22;5854;48.072;16.286;2024-02-04T03:50:23;7.90;82.00
11597;DHT22;5854;48.072;16.286;2024-02-04T03:52:50;8.00;84.40
11597;DHT22;5854;48.072;16.286;2024-02-04T03:55:17;8.00;82.20
11597;DHT22;5854;48.072;16.286;2024-02-04T03:57:44;7.90;79.60
11597;DHT22;5854;48.072;16.286;2024-02-04T04:00:12;8.00;81.50
11597;DHT22;5854;48.072;16.286;2024-02-04T04:02:40;8.00;83.40
11597;DHT22;5854;48.072;16.286;2024-02-04T04:05:10;8.00;82.40
11597;DHT22;5854;48.072;16.286;2024-02-04T04:07:40;8.00;79.00
11597;DHT22;5854;48.072;16.286;2024-02-04T04:10:07;8.00;83.00
11597;DHT22;5854;48.072;16.286;2024-02-04T04:12:35;8.00;78.10
11597;DHT22;5854;48.072;16.286;2024-02-04T04:15:02;8.00;78.20
11597;DHT22;5854;48.072;16.286;2024-02-04T04:17:30;8.00;78.00
11597;DHT22;5854;48.072;16.286;2024-02-04T04:19:57;8.00;79.20
11597;DHT22;5854;48.072;16.286;2024-02-04T04:22:24;8.00;80.30
11597;DHT22;5854;48.072;16.286;2024-02-04T04:24:53;7.90;78.30
11597;DHT22;5854;48.072;16.286;2024-02-04T04:27:20;8.00;80.70
11597;DHT22;5854;48.072;16.286;2024-02-04T04:29:47;8.00;79.90
11597;DHT22;5854;48.072;16.286;2024-02-04T04:32:14;8.00;80.60
11597;DHT22;5854;48.072;16.286;2024-02-04T04:34:42;8.10;80.00
11597;DHT22;5854;48.072;16.286;2024-02-04T04:37:09;8.00;80.00
11597;DHT22;5854;48.072;16.286;2024-02-04T04:39:36;8.00;79.80
11597;DHT22;5854;48.072;16.286;2024-02-04T04:42:05;8.00;80.70
11597;DHT22;5854;48.072;16.286;2024-02-04T04:44:33;8.10;79.80
11597;DHT22;5854;48.072;16.286;2024-02-04T04:47:00;8.00;80.50
11597;DHT22;5854;48.072;16.286;2024-02-04T04:49:27;8.00;79.90
11597;DHT22;5854;48.072;16.286;2024-02-04T04:51:54;8.00;80.00
11597;DHT22;5854;48.072;16.286;2024-02-04T04:54:22;8.00;78.00
11597;DHT22;5854;48.072;16.286;2024-02-04T04:56:49;8.00;80.90
11597;DHT22;5854;48.072;16.286;2024-02-04T04:59:18;8.00;80.60
11597;DHT22;5854;48.072;16.286;2024-02-04T05:01:46;8.00;77.50
11597;DHT22;5854;48.072;16.286;2024-02-04T05:04:13;8.00;79.30
11597;DHT22;5854;48.072;16.286;2024-02-04T05:06:42;8.00;78.30
11597;DHT22;5854;48.072;16.286;2024-02-04T05:09:09;7.90;77.80
11597;DHT22;5854;48.072;16.286;2024-02-04T05:11:36;8.00;77.30
11597;DHT22;5854;48.072;16.286;2024-02-04T05:14:04;8.00;78.20
11597;DHT22;5854;48.072;16.286;2024-02-04T05:16:32;8.00;77.00
11597;DHT22;5854;48.072;16.286;2024-02-04T05:19:01;7.90;78.60
11597;DHT22;5854;48.072;16.286;2024-02-04T05:21:28;8.00;78.40
11597;DHT22;5854;48.072;16.286;2024-02-04T05:23:56;7.90;79.80
11597;DHT22;5854;48.072;16.286;2024-02-04T05:26:23;8.00;77.70
11597;DHT22;5854;48.072;16.286;2024-02-04T05:28:50;8.00;77.50
11597;DHT22;5854;48.072;16.286;2024-02-04T05:31:17;7.90;77.20
11597;DHT22;5854;48.072;16.286;2024-02-04T05:33:46;8.00;78.10
11597;DHT22;5854;48.072;16.286;2024-02-04T05:36:13;8.00;77.90
11597;DHT22;5854;48.072;16.286;2024-02-04T05:38:44;7.90;77.70
11597;DHT22;5854;48.072;16.286;2024-02-04T05:41:12;7.90;77.30
11597;DHT22;5854;48.072;16.286;2024-02-04T05:43:39;7.90;77.30
11597;DHT22;5854;48.072;16.286;2024-02-04T05:46:06;7.90;77.40
11597;DHT22;5854;48.072;16.286;2024-02-04T05:48:34;7.90;77.60
11597;DHT22;5854;48.072;16.286;2024-02-04T05:51:02;7.80;78.80
11597;DHT22;5854;48.072;16.286;2024-02-04T05:53:30;7.90;79.00
11597;DHT22;5854;48.072;16.286;2024-02-04T05:55:57;7.90;80.60
11597;DHT22;5854;48.072;16.286;2024-02-04T05:58:24;7.90;80.20
11597;DHT22;5854;48.072;16.286;2024-02-04T06:00:51;7.90;78.70
11597;DHT22;5854;48.072;16.286;2024-02-04T06:03:18;8.00;80.00
11597;DHT22;5854;48.072;16.286;2024-02-04T06:05:46;8.00;79.30
11597;DHT22;5854;48.072;16.286;2024-02-04T06:08:14;7.90;79.30
11597;DHT22;5854;48.072;16.286;2024-02-04T06:10:41;7.90;76.70
11597;DHT22;5854;48.072;16.286;2024-02-04T06:13:09;7.80;78.50
11597;DHT22;5854;48.072;16.286;2024-02-04T06:15:36;7.80;79.10
11597;DHT22;5854;48.072;16.286;2024-02-04T06:18:03;7.90;78.60
11597;DHT22;5854;48.072;16.286;2024-02-04T06:20:31;7.90;78.30
11597;DHT22;5854;48.072;16.286;2024-02-04T06:22:58;7.90;77.40
11597;DHT22;5854;48.072;16.286;2024-02-04T06:25:27;7.90;77.60
11597;DHT22;5854;48.072;16.286;2024-02-04T06:27:55;7.90;76.40
11597;DHT22;5854;48.072;16.286;2024-02-04T06:30:21;7.80;78.20
11597;DHT22;5854;48.072;16.286;2024-02-04T06:32:48;7.80;76.40
11597;DHT22;5854;48.072;16.286;2024-02-04T06:35:16;7.80;79.00
11597;DHT22;5854;48.072;16.286;2024-02-04T06:37:43;7.90;77.70
11597;DHT22;5854;48.072;16.286;2024-02-04T06:40:11;7.80;77.40
11597;DHT22;5854;48.072;16.286;2024-02-04T06:42:40;7.90;78.10
11597;DHT22;5854;48.072;16.286;2024-02-04T06:45:08;7.80;76.20
11597;DHT22;5854;48.072;16.286;2024-02-04T06:47:35;7.90;77.50
11597;DHT22;5854;48.072;16.286;2024-02-04T06:50:03;7.90;78.40
11597;DHT22;5854;48.072;16.286;2024-02-04T06:52:31;7.90;78.40
11597;DHT22;5854;48.072;16.286;2024-02-04T06:54:58;7.90;77.70
11597;DHT22;5854;48.072;16.286;2024-02-04T06:57:26;8.00;77.20
11597;DHT22;5854;48.072;16.286;2024-02-04T06:59:54;8.00;76.40
11597;DHT22;5854;48.072;16.286;2024-02-04T07:02:21;8.00;76.70
11597;DHT22;5854;48.072;16.286;2024-02-04T07:04:49;8.00;76.50
11597;DHT22;5854;48.072;16.286;2024-02-04T07:07:16;8.00;77.10
11597;DHT22;5854;48.072;16.286;2024-02-04T07:09:43;8.00;76.00
11597;DHT22;5854;48.072;16.286;2024-02-04T07:12:10;8.00;76.40
11597;DHT22;5854;48.072;16.286;2024-02-04T07:14:38;8.00;75.60
11597;DHT22;5854;48.072;16.286;2024-02-04T07:17:06;8.10;75.70
11597;DHT22;5854;48.072;16.286;2024-02-04T07:19:34;8.10;75.20
11597;DHT22;5854;48.072;16.286;2024-02-04T07:22:01;8.10;75.50
11597;DHT22;5854;48.072;16.286;2024-02-04T07:24:28;8.10;75.80
11597;DHT22;5854;48.072;16.286;2024-02-04T07:26:56;8.00;76.70
11597;DHT22;5854;48.072;16.286;2024-02-04T07:29:23;8.00;74.70
11597;DHT22;5854;48.072;16.286;2024-02-04T07:31:50;8.00;75.10
11597;DHT22;5854;48.072;16.286;2024-02-04T07:34:19;8.00;75.90
11597;DHT22;5854;48.072;16.286;2024-02-04T07:36:46;8.10;76.10
11597;DHT22;5854;48.072;16.286;2024-02-04T07:39:13;8.20;74.70
11597;DHT22;5854;48.072;16.286;2024-02-04T07:41:41;8.20;76.00
11597;DHT22;5854;48.072;16.286;2024-02-04T07:44:08;8.20;74.30
11597;DHT22;5854;48.072;16.286;2024-02-04T07:46:35;8.10;74.00
11597;DHT22;5854;48.072;16.286;2024-02-04T07:49:03;8.20;74.10
11597;DHT22;5854;48.072;16.286;2024-02-04T07:51:31;8.30;74.80
11597;DHT22;5854;48.072;16.286;2024-02-04T07:54:01;8.30;74.10
11597;DHT22;5854;48.072;16.286;2024-02-04T07:56:28;8.30;73.00
11597;DHT22;5854;48.072;16.286;2024-02-04T07:58:55;8.30;73.50
11597;DHT22;5854;48.072;16.286;2024-02-04T08:01:23;8.30;73.40
11597;DHT22;5854;48.072;16.286;2024-02-04T08:03:50;8.30;74.50
11597;DHT22;5854;48.072;16.286;2024-02-04T08:06:17;8.40;73.10
11597;DHT22;5854;48.072;16.286;2024-02-04T08:08:46;8.30;72.50
11597;DHT22;5854;48.072;16.286;2024-02-04T08:11:16;8.30;72.50
11597;DHT22;5854;48.072;16.286;2024-02-04T08:13:44;8.40;71.90
11597;DHT22;5854;48.072;16.286;2024-02-04T08:16:11;8.40;72.50
11597;DHT22;5854;48.072;16.286;2024-02-04T08:18:39;8.50;72.40
11597;DHT22;5854;48.072;16.286;2024-02-04T08:21:06;8.40;71.30
11597;DHT22;5854;48.072;16.286;2024-02-04T08:23:33;8.30;72.00
11597;DHT22;5854;48.072;16.286;2024-02-04T08:26:02;8.40;72.60
11597;DHT22;5854;48.072;16.286;2024-02-04T08:28:30;8.60;71.50
11597;DHT22;5854;48.072;16.286;2024-02-04T08:30:57;8.80;70.00
11597;DHT22;5854;48.072;16.286;2024-02-04T08:33:24;8.60;70.60
11597;DHT22;5854;48.072;16.286;2024-02-04T08:35:51;8.80;69.90
11597;DHT22;5854;48.072;16.286;2024-02-04T08:38:19;8.70;69.30
11597;DHT22;5854;48.072;16.286;2024-02-04T08:40:46;8.70;70.10
11597;DHT22;5854;48.072;16.286;2024-02-04T08:43:15;8.60;69.90
11597;DHT22;5854;48.072;16.286;2024-02-04T08:45:42;8.70;70.10
11597;DHT22;5854;48.072;16.286;2024-02-04T08:48:10;8.70;71.20
11597;DHT22;5854;48.072;16.286;2024-02-04T08:50:37;8.90;69.10
11597;DHT22;5854;48.072;16.286;2024-02-04T08:53:04;9.00;69.10
11597;DHT22;5854;48.072;16.286;2024-02-04T08:55:31;9.00;68.20
11597;DHT22;5854;48.072;16.286;2024-02-04T08:57:59;8.90;69.90
11597;DHT22;5854;48.072;16.286;2024-02-04T09:00:28;9.00;68.30
11597;DHT22;5854;48.072;16.286;2024-02-04T09:02:55;8.90;69.30
11597;DHT22;5854;48.072;16.286;2024-02-04T09:05:22;9.20;68.10
11597;DHT22;5854;48.072;16.286;2024-02-04T09:07:50;9.20;67.50
11597;DHT22;5854;48.072;16.286;2024-02-04T09:10:17;9.20;66.70
11597;DHT22;5854;48.072;16.286;2024-02-04T09:12:44;9.40;67.10
11597;DHT22;5854;48.072;16.286;2024-02-04T09:15:11;9.50;65.90
11597;DHT22;5854;48.072;16.286;2024-02-04T09:17:40;9.50;65.20
11597;DHT22;5854;48.072;16.286;2024-02-04T09:20:08;9.40;66.00
11597;DHT22;5854;48.072;16.286;2024-02-04T09:22:36;9.60;66.20
11597;DHT22;5854;48.072;16.286;2024-02-04T09:25:05;9.50;65.10
11597;DHT22;5854;48.072;16.286;2024-02-04T09:27:33;9.70;67.40
11597;DHT22;5854;48.072;16.286;2024-02-04T09:30:00;9.70;65.10
11597;DHT22;5854;48.072;16.286;2024-02-04T09:32:27;9.70;65.60
11597;DHT22;5854;48.072;16.286;2024-02-04T09:34:56;9.80;63.40
11597;DHT22;5854;48.072;16.286;2024-02-04T09:37:24;9.60;64.40
11597;DHT22;5854;48.072;16.286;2024-02-04T09:39:51;9.40;65.50
11597;DHT22;5854;48.072;16.286;2024-02-04T09:42:20;9.10;67.10
11597;DHT22;5854;48.072;16.286;2024-02-04T09:44:49;9.20;67.30
11597;DHT22;5854;48.072;16.286;2024-02-04T09:47:17;9.60;66.30
11597;DHT22;5854;48.072;16.286;2024-02-04T09:49:44;9.70;66.90
11597;DHT22;5854;48.072;16.286;2024-02-04T09:52:13;9.90;64.70
11597;DHT22;5854;48.072;16.286;2024-02-04T09:54:45;9.80;65.20
11597;DHT22;5854;48.072;16.286;2024-02-04T09:57:15;9.80;65.60
11597;DHT22;5854;48.072;16.286;2024-02-04T09:59:44;9.50;65.60
11597;DHT22;5854;48.072;16.286;2024-02-04T10:02:15;9.60;66.50
11597;DHT22;5854;48.072;16.286;2024-02-04T10:04:43;9.90;64.80
11597;DHT22;5854;48.072;16.286;2024-02-04T10:07:10;9.70;64.90
11597;DHT22;5854;48.072;16.286;2024-02-04T10:09:40;9.60;66.40
11597;DHT22;5854;48.072;16.286;2024-02-04T10:12:07;9.90;66.00
11597;DHT22;5854;48.072;16.286;2024-02-04T10:14:35;9.90;65.60
11597;DHT22;5854;48.072;16.286;2024-02-04T10:17:03;9.90;65.40
11597;DHT22;5854;48.072;16.286;2024-02-04T10:19:30;9.80;65.50
11597;DHT22;5854;48.072;16.286;2024-02-04T10:21:59;10.00;65.90
11597;DHT22;5854;48.072;16.286;2024-02-04T10:24:27;9.70;65.50
11597;DHT22;5854;48.072;16.286;2024-02-04T10:26:56;9.80;66.40
11597;DHT22;5854;48.072;16.286;2024-02-04T10:29:24;9.60;66.40
11597;DHT22;5854;48.072;16.286;2024-02-04T10:31:53;9.30;68.20
11597;DHT22;5854;48.072;16.286;2024-02-04T10:34:22;9.50;70.00
11597;DHT22;5854;48.072;16.286;2024-02-04T10:36:49;9.40;69.10
11597;DHT22;5854;48.072;16.286;2024-02-04T10:39:16;9.50;68.90
11597;DHT22;5854;48.072;16.286;2024-02-04T10:41:49;9.70;68.60
11597;DHT22;5854;48.072;16.286;2024-02-04T10:44:21;9.50;67.90
11597;DHT22;5854;48.072;16.286;2024-02-04T10:46:50;9.60;67.20
11597;DHT22;5854;48.072;16.286;2024-02-04T10:49:19;9.90;66.50
11597;DHT22;5854;48.072;16.286;2024-02-04T10:51:47;10.20;66.20
11597;DHT22;5854;48.072;16.286;2024-02-04T10:54:15;9.90;66.20
11597;DHT22;5854;48.072;16.286;2024-02-04T10:56:44;9.90;67.60
11597;DHT22;5854;48.072;16.286;2024-02-04T10:59:15;9.80;67.20
11597;DHT22;5854;48.072;16.286;2024-02-04T11:01:46;9.70;67.50
11597;DHT22;5854;48.072;16.286;2024-02-04T11:04:17;9.70;67.00
11597;DHT22;5854;48.072;16.286;2024-02-04T11:06:45;9.70;67.30
11597;DHT22;5854;48.072;16.286;2024-02-04T11:09:13;9.60;67.30
11597;DHT22;5854;48.072;16.286;2024-02-04T11:11:41;9.90;67.00
11597;DHT22;5854;48.072;16.286;2024-02-04T11:14:11;10.00;66.30
11597;DHT22;5854;48.072;16.286;2024-02-04T11:17:11;9.80;66.90
11597;DHT22;5854;48.072;16.286;2024-02-04T11:20:01;10.00;67.00
11597;DHT22;5854;48.072;16.286;2024-02-04T11:22:52;10.00;67.20
11597;DHT22;5854;48.072;16.286;2024-02-04T11:25:46;10.10;66.00
11597;DHT22;5854;48.072;16.286;2024-02-04T11:28:16;10.10;65.90
11597;DHT22;5854;48.072;16.286;2024-02-04T11:30:45;9.90;66.70
11597;DHT22;5854;48.072;16.286;2024-02-04T11:33:17;10.00;66.50
11597;DHT22;5854;48.072;16.286;2024-02-04T11:35:45;10.10;66.10
11597;DHT22;5854;48.072;16.286;2024-02-04T11:38:17;10.10;66.30
11597;DHT22;5854;48.072;16.286;2024-02-04T11:40:45;10.00;66.80
11597;DHT22;5854;48.072;16.286;2024-02-04T11:43:14;9.90;67.10
11597;DHT22;5854;48.072;16.286;2024-02-04T11:45:42;10.00;67.30
11597;DHT22;5854;48.072;16.286;2024-02-04T11:48:11;9.90;67.40
11597;DHT22;5854;48.072;16.286;2024-02-04T11:50:40;9.90;68.20
11597;DHT22;5854;48.072;16.286;2024-02-04T11:53:09;10.00;68.50
11597;DHT22;5854;48.072;16.286;2024-02-04T11:55:36;9.80;68.60
11597;DHT22;5854;48.072;16.286;2024-02-04T11:58:04;9.70;69.40
11597;DHT22;5854;48.072;16.286;2024-02-04T12:00:33;9.60;69.90
11597;DHT22;5854;48.072;16.286;2024-02-04T12:03:01;9.70;70.70
11597;DHT22;5854;48.072;16.286;2024-02-04T12:05:31;9.80;70.00
11597;DHT22;5854;48.072;16.286;2024-02-04T12:08:01;9.90;69.40
11597;DHT22;5854;48.072;16.286;2024-02-04T12:10:30;9.90;68.50
11597;DHT22;5854;48.072;16.286;2024-02-04T12:12:59;9.80;68.50
11597;DHT22;5854;48.072;16.286;2024-02-04T12:15:26;9.90;68.30
11597;DHT22;5854;48.072;16.286;2024-02-04T12:17:53;10.00;67.40
11597;DHT22;5854;48.072;16.286;2024-02-04T12:20:21;9.90;67.80
11597;DHT22;5854;48.072;16.286;2024-02-04T12:22:48;10.00;68.00
11597;DHT22;5854;48.072;16.286;2024-02-04T12:25:17;9.90;68.70
11597;DHT22;5854;48.072;16.286;2024-02-04T12:27:45;10.00;69.10
11597;DHT22;5854;48.072;16.286;2024-02-04T12:30:14;10.00;68.30
11597;DHT22;5854;48.072;16.286;2024-02-04T12:32:42;10.00;68.20
11597;DHT22;5854;48.072;16.286;2024-02-04T12:35:13;10.10;67.60
11597;DHT22;5854;48.072;16.286;2024-02-04T12:37:50;9.90;69.30
11597;DHT22;5854;48.072;16.286;2024-02-04T12:40:22;10.00;68.50
11597;DHT22;5854;48.072;16.286;2024-02-04T12:42:54;9.90;69.10
11597;DHT22;5854;48.072;16.286;2024-02-04T12:45:22;10.10;68.30
11597;DHT22;5854;48.072;16.286;2024-02-04T12:47:50;10.10;68.60
11597;DHT22;5854;48.072;16.286;2024-02-04T12:50:18;10.10;68.70
11597;DHT22;5854;48.072;16.286;2024-02-04T12:52:45;9.90;69.10
11597;DHT22;5854;48.072;16.286;2024-02-04T12:55:21;10.00;68.70
11597;DHT22;5854;48.072;16.286;2024-02-04T12:57:50;9.90;69.70
11597;DHT22;5854;48.072;16.286;2024-02-04T13:00:18;9.90;70.00
11597;DHT22;5854;48.072;16.286;2024-02-04T13:02:49;9.90;69.70
11597;DHT22;5854;48.072;16.286;2024-02-04T13:05:22;10.00;69.50
11597;DHT22;5854;48.072;16.286;2024-02-04T13:07:53;10.00;69.90
11597;DHT22;5854;48.072;16.286;2024-02-04T13:10:24;9.90;70.00
11597;DHT22;5854;48.072;16.286;2024-02-04T13:13:01;10.00;70.20
11597;DHT22;5854;48.072;16.286;2024-02-04T13:15:30;10.00;70.10
11597;DHT22;5854;48.072;16.286;2024-02-04T13:17:58;9.80;70.60
11597;DHT22;5854;48.072;16.286;2024-02-04T13:20:26;9.90;70.70
11597;DHT22;5854;48.072;16.286;2024-02-04T13:22:53;9.80;70.90
11597;DHT22;5854;48.072;16.286;2024-02-04T13:25:20;9.90;70.40
11597;DHT22;5854;48.072;16.286;2024-02-04T13:27:49;10.00;70.50
11597;DHT22;5854;48.072;16.286;2024-02-04T13:30:18;10.00;69.10
11597;DHT22;5854;48.072;16.286;2024-02-04T13:32:45;10.00;70.00
11597;DHT22;5854;48.072;16.286;2024-02-04T13:35:12;10.00;70.00
11597;DHT22;5854;48.072;16.286;2024-02-04T13:37:42;9.90;71.10
11597;DHT22;5854;48.072;16.286;2024-02-04T13:40:13;9.80;71.50
11597;DHT22;5854;48.072;16.286;2024-02-04T13:42:41;9.90;70.60
11597;DHT22;5854;48.072;16.286;2024-02-04T13:45:10;10.00;69.70
11597;DHT22;5854;48.072;16.286;2024-02-04T13:47:39;10.00;69.70
11597;DHT22;5854;48.072;16.286;2024-02-04T13:50:07;10.00;70.50
11597;DHT22;5854;48.072;16.286;2024-02-04T13:52:35;10.00;70.30
11597;DHT22;5854;48.072;16.286;2024-02-04T13:55:03;9.90;70.60
11597;DHT22;5854;48.072;16.286;2024-02-04T13:57:32;10.00;69.00
11597;DHT22;5854;48.072;16.286;2024-02-04T14:00:00;10.10;68.50
11597;DHT22;5854;48.072;16.286;2024-02-04T14:02:30;10.10;69.10
11597;DHT22;5854;48.072;16.286;2024-02-04T14:04:57;10.10;68.40
11597;DHT22;5854;48.072;16.286;2024-02-04T14:07:25;10.00;69.60
11597;DHT22;5854;48.072;16.286;2024-02-04T14:09:53;9.90;70.00
11597;DHT22;5854;48.072;16.286;2024-02-04T14:12:20;9.90;69.80
11597;DHT22;5854;48.072;16.286;2024-02-04T14:14:47;10.00;68.70
11597;DHT22;5854;48.072;16.286;2024-02-04T14:17:14;10.10;68.80
11597;DHT22;5854;48.072;16.286;2024-02-04T14:19:43;9.90;70.00
11597;DHT22;5854;48.072;16.286;2024-02-04T14:22:14;10.00;69.60
11597;DHT22;5854;48.072;16.286;2024-02-04T14:24:42;10.00;69.80
11597;DHT22;5854;48.072;16.286;2024-02-04T14:27:11;9.90;70.20
11597;DHT22;5854;48.072;16.286;2024-02-04T14:29:38;9.90;70.80
11597;DHT22;5854;48.072;16.286;2024-02-04T14:32:06;9.80;71.00
11597;DHT22;5854;48.072;16.286;2024-02-04T14:34:34;9.80;70.70
11597;DHT22;5854;48.072;16.286;2024-02-04T14:37:03;9.90;70.00
11597;DHT22;5854;48.072;16.286;2024-02-04T14:39:30;9.90;70.40
11597;DHT22;5854;48.072;16.286;2024-02-04T14:41:58;9.90;69.90
11597;DHT22;5854;48.072;16.286;2024-02-04T14:44:25;10.00;69.60
11597;DHT22;5854;48.072;16.286;2024-02-04T14:46:52;10.00;68.60
11597;DHT22;5854;48.072;16.286;2024-02-04T14:49:19;10.10;69.20
11597;DHT22;5854;48.072;16.286;2024-02-04T14:51:47;10.10;68.40
11597;DHT22;5854;48.072;16.286;2024-02-04T14:54:15;10.10;68.80
11597;DHT22;5854;48.072;16.286;2024-02-04T14:56:43;10.00;69.80
11597;DHT22;5854;48.072;16.286;2024-02-04T14:59:13;10.00;68.30
11597;DHT22;5854;48.072;16.286;2024-02-04T15:01:44;10.10;69.00
11597;DHT22;5854;48.072;16.286;2024-02-04T15:04:12;10.10;68.00
11597;DHT22;5854;48.072;16.286;2024-02-04T15:06:39;10.20;67.00
11597;DHT22;5854;48.072;16.286;2024-02-04T15:09:06;10.20;67.90
11597;DHT22;5854;48.072;16.286;2024-02-04T15:11:37;10.20;67.30
11597;DHT22;5854;48.072;16.286;2024-02-04T15:14:05;10.10;68.10
11597;DHT22;5854;48.072;16.286;2024-02-04T15:16:34;10.10;68.40
11597;DHT22;5854;48.072;16.286;2024-02-04T15:19:05;10.10;68.30
11597;DHT22;5854;48.072;16.286;2024-02-04T15:21:33;10.10;69.10
11597;DHT22;5854;48.072;16.286;2024-02-04T15:24:01;10.20;67.80
11597;DHT22;5854;48.072;16.286;2024-02-04T15:26:30;10.20;68.70
11597;DHT22;5854;48.072;16.286;2024-02-04T15:29:02;10.00;69.40
11597;DHT22;5854;48.072;16.286;2024-02-04T15:31:30;10.00;69.40
11597;DHT22;5854;48.072;16.286;2024-02-04T15:33:59;10.10;69.40
11597;DHT22;5854;48.072;16.286;2024-02-04T15:36:28;10.10;69.10
11597;DHT22;5854;48.072;16.286;2024-02-04T15:38:55;10.10;68.50
11597;DHT22;5854;48.072;16.286;2024-02-04T15:41:22;10.10;68.80
11597;DHT22;5854;48.072;16.286;2024-02-04T15:43:49;10.10;69.00
11597;DHT22;5854;48.072;16.286;2024-02-04T15:46:18;10.00;69.00
11597;DHT22;5854;48.072;16.286;2024-02-04T15:48:46;10.10;68.40